Time;durP1;ratioP1;P1;durP2;ratioP2;P2;SDS_P1;SDS_P2;PMS_P1;PMS_P2;Temp;Humidity;BMP_temperature;BMP_pressure;BME280_temperature;BME280_humidity;BME280_pressure;Samples;Min_cycle;Max_cycle;Signal;HPM_P1;HPM_P2
2022/01/27 00:07:54;;;;;;;23.42;10.35;;;;;;;-1.40;76.76;95921.94;5011817;28;20377;-78
2022/01/27 00:10:30;;;;;;;22.92;10.25;;;;;;;-1.86;77.46;95864.13;5010357;28;20038;-78
2022/01/27 00:12:56;;;;;;;21.15;10.35;;;;;;;-1.83;77.35;95879.34;5011359;28;20030;-78
2022/01/27 00:15:39;;;;;;;16.60;8.68;;;;;;;-1.83;77.65;95863.75;1840801;28;10022767;-79
2022/01/27 00:18:13;;;;;;;22.30;10.90;;;;;;;-1.73;77.49;95892.91;3972938;28;10001078;-78
2022/01/27 00:20:40;;;;;;;20.38;10.02;;;;;;;-1.87;77.10;95844.31;5009830;28;20444;-78
2022/01/27 00:23:06;;;;;;;23.95;10.40;;;;;;;-1.44;76.62;95922.47;5011328;28;20046;-78
2022/01/27 00:25:31;;;;;;;25.83;12.48;;;;;;;-2.29;77.24;95790.38;5009358;28;20038;-78
2022/01/27 00:27:56;;;;;;;26.40;12.18;;;;;;;-1.65;77.56;95884.19;5010759;28;20030;-78
2022/01/27 00:30:22;;;;;;;26.98;11.98;;;;;;;-1.69;77.55;95885.56;5011347;28;20488;-78
2022/01/27 00:32:47;;;;;;;27.88;11.90;;;;;;;-1.66;77.16;95872.19;5010234;28;20042;-79
2022/01/27 00:35:13;;;;;;;24.38;11.48;;;;;;;-1.99;76.73;95823.19;5010117;28;20038;-78
2022/01/27 00:37:39;;;;;;;22.15;10.10;;;;;;;-1.74;77.20;95857.47;5011469;28;20421;-78
2022/01/27 00:40:06;;;;;;;25.85;11.50;;;;;;;-1.47;76.90;95900.25;5011583;28;20480;-79
2022/01/27 00:42:32;;;;;;;23.38;9.88;;;;;;;-1.99;76.79;95828.38;5009898;28;20030;-79
2022/01/27 00:44:58;;;;;;;19.00;9.27;;;;;;;-1.99;76.74;95807.59;5010985;28;20042;-79
2022/01/27 00:47:24;;;;;;;18.10;8.80;;;;;;;-2.02;76.89;95820.94;5009679;28;20034;-78
2022/01/27 00:49:50;;;;;;;17.15;9.30;;;;;;;-2.07;77.17;95815.47;5011075;28;20037;-79
2022/01/27 00:52:24;;;;;;;20.73;9.10;;;;;;;-1.91;77.38;95837.88;5009445;28;20069;-79
2022/01/27 00:54:52;;;;;;;22.40;11.02;;;;;;;-2.39;76.94;95763.84;5009628;28;20034;-78
2022/01/27 00:57:38;;;;;;;19.17;8.88;;;;;;;-1.69;77.40;95862.16;5009861;28;20173;-78
2022/01/27 01:00:08;;;;;;;19.75;9.10;;;;;;;-1.70;77.10;95863.94;5010033;28;20401;-78
2022/01/27 01:07:45;;;;;;;17.48;8.18;;;;;;;-1.72;77.08;95860.72;5011238;28;20038;-79
2022/01/27 01:15:46;;;;;;;16.38;8.13;;;;;;;-1.81;76.58;95834.97;5011366;28;20048;-79
2022/01/27 01:30:20;;;;;;;12.38;6.68;;;;;;;-1.45;76.90;95897.47;5014381;28;20056;-78
2022/01/27 01:34:28;;;;;;;12.27;6.55;;;;;;;-1.89;77.00;95832.47;5014933;28;20073;-78
2022/01/27 01:39:21;;;;;;;11.60;6.15;;;;;;;-1.44;76.04;95878.25;5014481;28;20045;-79
2022/01/27 01:41:46;;;;;;;13.35;6.32;;;;;;;-1.24;76.14;95902.72;5012748;28;20029;-79
2022/01/27 01:44:12;;;;;;;13.43;6.55;;;;;;;-1.57;75.25;95848.50;5014346;28;20113;-78
2022/01/27 01:46:38;;;;;;;14.02;5.50;;;;;;;-1.59;75.35;95847.88;5013082;28;20095;-78
2022/01/27 01:49:04;;;;;;;12.35;5.35;;;;;;;-1.48;75.22;95849.22;5012853;28;20041;-78
2022/01/27 01:51:32;;;;;;;16.90;7.05;;;;;;;-1.52;75.05;95842.75;5012687;28;20501;-78
2022/01/27 01:53:58;;;;;;;11.77;6.30;;;;;;;-1.29;75.80;95881.63;5012656;28;20034;-78
2022/01/27 01:56:24;;;;;;;11.52;5.90;;;;;;;-1.67;75.35;95829.75;5013977;28;20046;-78
2022/01/27 01:58:50;;;;;;;11.15;4.97;;;;;;;-2.12;75.43;95758.00;5014072;28;20038;-79
2022/01/27 02:01:16;;;;;;;9.82;4.82;;;;;;;-1.28;75.34;95878.84;5013777;28;20014;-79
2022/01/27 02:03:42;;;;;;;13.43;6.03;;;;;;;-1.32;75.59;95869.81;5013791;28;20042;-79
2022/01/27 02:06:15;;;;;;;10.90;5.65;;;;;;;-1.67;75.29;95810.75;5013337;28;20112;-79
2022/01/27 02:08:50;;;;;;;11.27;5.60;;;;;;;-1.47;75.11;95853.44;5013630;28;20069;-79
2022/01/27 02:19:58;;;;;;;12.60;5.56;;;;;;;-1.55;75.38;95809.31;4385790;28;10000712;-79
2022/01/27 02:22:24;;;;;;;11.82;6.50;;;;;;;-1.73;74.99;95785.47;1382040;28;10001933;-79
2022/01/27 02:24:53;;;;;;;12.73;5.78;;;;;;;-1.26;74.49;95852.66;5012715;28;20786;-79
2022/01/27 02:27:19;;;;;;;13.18;6.35;;;;;;;-1.25;75.05;95864.69;5011885;28;20493;-78
2022/01/27 02:29:45;;;;;;;9.93;5.20;;;;;;;-2.08;75.63;95746.28;5012052;28;20030;-79
2022/01/27 02:32:13;;;;;;;10.18;5.22;;;;;;;-1.44;75.75;95837.44;5011253;28;20038;-78
2022/01/27 02:34:39;;;;;;;9.05;4.82;;;;;;;-1.27;75.75;95864.03;5011443;28;20132;-78
2022/01/27 02:37:05;;;;;;;9.23;4.13;;;;;;;-1.64;76.08;95813.81;5013194;28;20038;-79
2022/01/27 02:39:31;;;;;;;6.65;4.22;;;;;;;-1.91;76.59;95782.47;5011316;28;20054;-79
2022/01/27 02:42:19;;;;;;;7.93;4.68;;;;;;;-1.38;76.01;95857.53;5012995;28;20037;-79
2022/01/27 02:44:46;;;;;;;10.35;4.97;;;;;;;-1.38;76.67;95857.53;5012714;28;20033;-78
2022/01/27 02:47:13;;;;;;;8.68;5.15;;;;;;;-1.56;76.61;95841.50;5012940;28;20044;-79
2022/01/27 02:49:38;;;;;;;8.52;4.28;;;;;;;-1.75;76.43;95813.44;5012911;28;20092;-78
2022/01/27 02:52:05;;;;;;;8.95;5.18;;;;;;;-1.61;76.68;95830.84;5011123;28;20125;-79
2022/01/27 02:54:30;;;;;;;7.70;4.90;;;;;;;-1.41;76.92;95867.50;5012864;28;20034;-79
2022/01/27 02:56:56;;;;;;;10.65;5.03;;;;;;;-1.36;76.60;95870.34;5013867;28;20102;-80
2022/01/27 02:59:21;;;;;;;7.80;4.75;;;;;;;-1.78;77.09;95801.63;5027486;28;20081;-80
2022/01/27 03:01:49;;;;;;;9.30;5.85;;;;;;;-1.23;76.68;95865.31;5013127;28;20045;-81
2022/01/27 03:04:16;;;;;;;7.65;4.72;;;;;;;-1.85;77.42;95797.34;5011513;28;20484;-81
2022/01/27 03:06:42;;;;;;;7.22;4.63;;;;;;;-1.24;77.36;95869.72;5010931;28;20041;-81
2022/01/27 03:09:08;;;;;;;8.02;4.50;;;;;;;-1.76;76.87;95797.06;5013473;28;20065;-81
2022/01/27 03:11:47;;;;;;;8.32;4.50;;;;;;;-1.65;78.00;95803.56;5011391;28;20136;-81
2022/01/27 03:14:17;;;;;;;7.55;4.72;;;;;;;-1.36;77.47;95837.31;5012635;28;20466;-80
2022/01/27 03:16:44;;;;;;;9.73;5.00;;;;;;;-1.29;77.78;95860.81;5011515;28;20067;-81
2022/01/27 03:19:09;;;;;;;6.75;4.57;;;;;;;-1.37;77.60;95861.72;5011046;28;20061;-80
2022/01/27 03:21:36;;;;;;;8.65;4.97;;;;;;;-1.32;78.03;95858.59;5011174;28;20115;-80
2022/01/27 03:24:01;;;;;;;10.45;5.50;;;;;;;-1.23;77.38;95878.31;5011267;28;20048;-80
2022/01/27 03:26:27;;;;;;;8.80;5.28;;;;;;;-1.99;77.27;95740.00;5012325;28;20038;-80
2022/01/27 03:28:53;;;;;;;10.43;5.90;;;;;;;-1.87;77.53;95736.91;5012501;28;20030;-80
2022/01/27 03:31:19;;;;;;;12.80;6.18;;;;;;;-1.87;77.93;95757.72;5011118;28;20124;-80
2022/01/27 03:33:45;;;;;;;9.95;6.20;;;;;;;-1.69;78.30;95799.75;5010896;28;20401;-80
2022/01/27 03:36:11;;;;;;;9.98;6.40;;;;;;;-1.75;78.37;95790.03;5012282;28;20543;-80
2022/01/27 03:38:37;;;;;;;12.05;6.88;;;;;;;-1.49;77.83;95824.19;5010922;28;20040;-81
2022/01/27 03:41:08;;;;;;;10.60;5.90;;;;;;;-1.78;77.88;95756.63;5012167;28;20034;-81
2022/01/27 03:43:35;;;;;;;11.00;5.45;;;;;;;-1.14;77.25;95863.41;5010537;28;20036;-80
2022/01/27 03:46:02;;;;;;;9.88;5.68;;;;;;;-1.20;78.18;95865.72;5011201;28;20045;-80
2022/01/27 03:48:27;;;;;;;9.10;5.15;;;;;;;-1.53;78.47;95817.75;5026876;28;20424;-80
2022/01/27 03:50:53;;;;;;;12.18;6.05;;;;;;;-1.08;77.79;95866.06;5010422;28;20055;-81
2022/01/27 03:53:19;;;;;;;11.85;6.63;;;;;;;-1.51;77.80;95804.53;5012051;28;20068;-80
2022/01/27 03:55:45;;;;;;;9.00;5.95;;;;;;;-1.12;77.92;95874.41;5011984;28;20053;-81
2022/01/27 03:58:11;;;;;;;9.90;5.70;;;;;;;-1.80;77.86;95751.59;5012082;28;20065;-80
2022/01/27 04:00:37;;;;;;;9.93;6.10;;;;;;;-1.42;77.84;95819.84;5012021;28;20477;-80
2022/01/27 04:03:09;;;;;;;8.88;6.35;;;;;;;-1.14;78.01;95874.59;5010308;28;20026;-80
2022/01/27 04:05:51;;;;;;;9.98;5.55;;;;;;;-1.17;77.44;95872.38;5011803;28;20064;-80
2022/01/27 04:08:17;;;;;;;7.97;5.03;;;;;;;-1.65;77.27;95816.59;5012105;28;20481;-81
2022/01/27 04:10:43;;;;;;;10.70;5.95;;;;;;;-1.35;77.88;95866.75;5012085;28;20525;-80
2022/01/27 04:13:10;;;;;;;11.35;5.63;;;;;;;-1.18;77.93;95878.56;5012020;28;20121;-80
2022/01/27 04:15:39;;;;;;;11.25;6.45;;;;;;;-1.26;77.83;95879.47;5011621;28;20109;-80
2022/01/27 04:18:05;;;;;;;10.68;5.28;;;;;;;-1.70;77.01;95811.94;5026864;28;20038;-80
2022/01/27 04:20:46;;;;;;;10.84;5.89;;;;;;;-1.56;76.57;95842.31;2525414;28;10003962;-80
2022/01/27 04:23:12;;;;;;;7.65;4.75;;;;;;;-1.87;76.66;95789.72;3282974;28;10001207;-80
2022/01/27 04:25:38;;;;;;;11.93;5.93;;;;;;;-1.24;77.14;95887.94;5010418;28;20038;-80
2022/01/27 04:28:11;;;;;;;11.65;5.70;;;;;;;-1.78;77.27;95796.44;5011792;28;20042;-80
2022/01/27 04:30:36;;;;;;;8.43;4.93;;;;;;;-1.25;77.33;95895.91;5010286;28;20070;-80
2022/01/27 04:33:04;;;;;;;10.65;5.60;;;;;;;-2.03;77.49;95771.72;5009658;28;20073;-80
2022/01/27 04:35:34;;;;;;;9.70;5.18;;;;;;;-2.13;77.19;95748.59;5009855;28;20038;-80
2022/01/27 04:38:14;;;;;;;11.73;6.05;;;;;;;-1.25;77.41;95888.09;5011418;28;20129;-80
2022/01/27 04:40:52;;;;;;;9.35;5.18;;;;;;;-1.94;77.42;95796.63;5011148;28;20034;-81
2022/01/27 04:48:18;;;;;;;9.75;6.35;;;;;;;-1.30;78.04;95895.66;5011812;28;20420;-80
2022/01/27 04:50:44;;;;;;;12.48;6.82;;;;;;;-1.82;78.29;95815.16;5011858;28;20070;-82
2022/01/27 04:53:17;;;;;;;11.38;6.35;;;;;;;-2.09;77.74;95764.66;5011577;28;20042;-81
2022/01/27 04:55:42;;;;;;;13.50;6.20;;;;;;;-1.26;78.17;95900.31;5011861;28;20064;-81
2022/01/27 04:58:15;;;;;;;10.07;6.57;;;;;;;-2.15;77.64;95761.00;5014272;28;20041;-80
2022/01/27 05:00:42;;;;;;;10.25;5.93;;;;;;;-1.88;77.61;95815.88;5013821;28;20045;-81
2022/01/27 05:05:56;;;;;;;9.70;6.00;;;;;;;-1.90;77.78;95831.66;4995674;28;20049;-81
2022/01/27 05:08:22;;;;;;;9.98;6.28;;;;;;;-1.56;77.79;95870.13;5013775;28;20030;-81
2022/01/27 05:10:56;;;;;;;10.38;6.63;;;;;;;-1.37;77.82;95925.97;5013207;28;20042;-81
2022/01/27 05:13:25;;;;;;;9.98;6.07;;;;;;;-2.31;78.40;95781.94;5013346;28;20448;-81
2022/01/27 05:15:50;;;;;;;11.73;7.20;;;;;;;-2.39;78.16;95756.06;5015236;28;20040;-81
2022/01/27 05:18:16;;;;;;;12.43;7.07;;;;;;;-1.49;78.72;95906.63;5014695;28;20038;-82
2022/01/27 05:20:42;;;;;;;11.95;7.07;;;;;;;-1.43;78.51;95914.50;5014909;28;20121;-82
2022/01/27 05:23:07;;;;;;;14.45;7.07;;;;;;;-1.78;79.14;95864.03;5014105;28;20045;-82
2022/01/27 05:25:33;;;;;;;12.00;7.60;;;;;;;-1.81;79.42;95887.78;5014394;28;20687;-81
2022/01/27 05:27:59;;;;;;;14.23;7.70;;;;;;;-1.60;79.25;95913.88;5013033;28;20445;-81
2022/01/27 05:30:25;;;;;;;13.00;7.03;;;;;;;-1.88;79.00;95847.91;5013914;28;20091;-81
2022/01/27 05:32:50;;;;;;;13.65;7.55;;;;;;;-1.69;78.97;95883.78;5012504;28;20380;-82
2022/01/27 05:35:16;;;;;;;12.32;7.82;;;;;;;-2.00;79.17;95816.38;5014045;28;20133;-81
2022/01/27 05:37:41;;;;;;;16.90;9.07;;;;;;;-1.59;79.53;95892.09;5012769;28;20065;-81
2022/01/27 05:40:07;;;;;;;12.98;7.93;;;;;;;-1.41;79.13;95930.75;5013119;28;20048;-81
2022/01/27 05:42:33;;;;;;;13.38;7.28;;;;;;;-2.07;79.46;95849.25;5015064;28;20030;-81
2022/01/27 05:44:59;;;;;;;14.63;7.90;;;;;;;-1.64;79.39;95897.03;5014866;28;20073;-81
2022/01/27 05:47:24;;;;;;;11.23;7.78;;;;;;;-1.96;79.48;95856.59;5013971;28;20076;-81
2022/01/27 05:49:49;;;;;;;15.02;8.82;;;;;;;-1.78;80.10;95869.25;5014162;28;20038;-81
2022/01/27 05:52:15;;;;;;;14.00;8.00;;;;;;;-2.20;80.06;95804.06;5013175;28;20107;-81
2022/01/27 05:54:42;;;;;;;14.30;8.75;;;;;;;-1.98;79.58;95839.56;5015298;28;20069;-81
2022/01/27 05:57:07;;;;;;;16.00;9.32;;;;;;;-1.69;79.91;95875.97;5014794;28;20022;-81
2022/01/27 05:59:33;;;;;;;14.25;8.65;;;;;;;-2.10;79.97;95817.59;5015812;28;20128;-80
2022/01/27 06:01:58;;;;;;;14.75;8.05;;;;;;;-1.30;80.00;95943.31;5013336;28;20038;-81
2022/01/27 06:04:24;;;;;;;15.13;8.43;;;;;;;-1.46;79.50;95940.09;5014294;28;20038;-80
2022/01/27 06:06:50;;;;;;;16.20;9.40;;;;;;;-1.70;79.73;95886.53;5013509;28;20042;-81
2022/01/27 06:09:15;;;;;;;21.88;10.65;;;;;;;-1.26;79.77;95943.75;5011633;28;20038;-81
2022/01/27 06:11:41;;;;;;;16.60;9.63;;;;;;;-2.44;80.15;95768.78;5028725;28;20038;-80
2022/01/27 06:14:06;;;;;;;15.85;8.57;;;;;;;-2.16;80.24;95816.53;5013856;28;20038;-81
2022/01/27 06:16:32;;;;;;;14.90;9.15;;;;;;;-1.30;80.03;95955.50;5014390;28;20046;-81
2022/01/27 06:18:57;;;;;;;17.48;9.82;;;;;;;-1.46;79.75;95921.88;5014144;28;20030;-81
2022/01/27 06:21:22;;;;;;;16.48;9.88;;;;;;;-1.70;79.83;95904.75;5011983;28;20029;-80
2022/01/27 06:23:48;;;;;;;16.45;9.82;;;;;;;-1.76;79.69;95890.69;5012443;28;20120;-80
2022/01/27 06:26:14;;;;;;;19.52;10.27;;;;;;;-1.88;79.96;95871.28;5012518;28;20141;-80
2022/01/27 06:28:39;;;;;;;16.35;9.60;;;;;;;-1.80;79.93;95871.22;5014164;28;20485;-79
2022/01/27 06:31:05;;;;;;;19.63;10.27;;;;;;;-1.69;79.51;95881.16;5012760;28;20040;-80
2022/01/27 06:33:30;;;;;;;15.70;9.38;;;;;;;-1.71;79.55;95890.13;5014114;28;20068;-81
2022/01/27 06:35:56;;;;;;;16.23;8.57;;;;;;;-2.07;79.68;95835.44;5011499;28;20038;-81
2022/01/27 06:38:21;;;;;;;18.15;10.07;;;;;;;-1.96;79.88;95877.38;5013734;28;20045;-80
2022/01/27 06:40:47;;;;;;;20.00;9.73;;;;;;;-1.43;79.99;95931.91;5012683;28;20034;-80
2022/01/27 06:43:16;;;;;;;19.15;11.07;;;;;;;-1.45;79.54;95923.50;5013575;28;20095;-81
2022/01/27 06:45:41;;;;;;;17.30;9.88;;;;;;;-2.18;79.31;95825.50;5013227;28;20038;-81
2022/01/27 06:48:07;;;;;;;18.08;10.23;;;;;;;-1.09;79.64;95965.97;5013284;28;20113;-81
2022/01/27 06:50:34;;;;;;;17.27;9.45;;;;;;;-1.97;78.82;95843.78;5014051;28;20558;-80
2022/01/27 06:53:00;;;;;;;17.65;10.30;;;;;;;-1.86;79.63;95871.13;5012307;28;20596;-81
2022/01/27 06:55:25;;;;;;;19.38;10.98;;;;;;;-1.84;79.53;95884.75;5013304;28;20072;-81
2022/01/27 06:57:51;;;;;;;17.70;10.77;;;;;;;-1.69;80.00;95898.56;5013485;28;20104;-81
2022/01/27 07:00:17;;;;;;;19.88;11.38;;;;;;;-2.20;79.61;95823.06;5014342;28;20037;-81
2022/01/27 07:02:43;;;;;;;20.55;11.05;;;;;;;-1.40;80.00;95932.38;5013625;28;20041;-81
2022/01/27 07:05:10;;;;;;;20.38;11.68;;;;;;;-2.55;79.56;95733.66;5013769;28;20038;-81
2022/01/27 07:07:37;;;;;;;17.75;10.95;;;;;;;-1.02;79.23;95968.66;5012037;28;20045;-81
2022/01/27 07:10:02;;;;;;;21.27;10.60;;;;;;;-1.00;78.70;95977.91;5013026;28;20037;-81
2022/01/27 07:12:28;;;;;;;21.85;11.23;;;;;;;-1.23;78.97;95946.00;5010953;28;20038;-82
2022/01/27 07:14:55;;;;;;;19.10;11.00;;;;;;;-1.28;79.40;95941.31;5012753;28;20034;-82
2022/01/27 07:17:21;;;;;;;17.80;9.85;;;;;;;-1.61;78.99;95886.28;5011604;28;20088;-81
2022/01/27 07:19:47;;;;;;;15.45;10.23;;;;;;;-2.01;79.04;95830.34;5011179;28;20038;-80
2022/01/27 07:22:12;;;;;;;18.48;10.98;;;;;;;-1.37;78.74;95938.97;5013238;28;20045;-80
2022/01/27 07:24:38;;;;;;;22.13;11.02;;;;;;;-1.34;78.85;95942.03;5013425;28;20041;-80
2022/01/27 07:27:04;;;;;;;17.63;9.48;;;;;;;-1.58;78.71;95905.91;5010457;28;20041;-80
2022/01/27 07:29:29;;;;;;;17.65;10.35;;;;;;;-1.40;79.25;95939.34;5011056;28;20539;-80
2022/01/27 07:31:55;;;;;;;21.20;12.15;;;;;;;-1.25;79.39;95947.97;5010306;28;20034;-79
2022/01/27 07:34:20;;;;;;;20.58;11.43;;;;;;;-1.21;79.97;95952.59;5013072;28;20061;-80
2022/01/27 07:36:46;;;;;;;15.52;9.30;;;;;;;-1.68;79.29;95887.97;5011194;28;20041;-80
2022/01/27 07:39:16;;;;;;;19.25;10.63;;;;;;;-1.22;79.74;95958.78;5010962;28;20042;-80
2022/01/27 07:41:44;;;;;;;17.45;10.27;;;;;;;-1.53;79.11;95900.19;5012400;28;20273;-80
2022/01/27 07:44:10;;;;;;;18.83;10.63;;;;;;;-0.96;78.94;95963.53;5011266;28;20038;-80
2022/01/27 07:46:36;;;;;;;20.90;12.52;;;;;;;-1.19;79.30;95924.59;5010700;28;20065;-81
2022/01/27 07:49:01;;;;;;;18.45;10.82;;;;;;;-0.74;78.11;95993.03;5012765;28;20034;-81
2022/01/27 07:51:27;;;;;;;16.80;10.45;;;;;;;-1.70;78.43;95858.75;5010281;28;20064;-80
2022/01/27 07:53:52;;;;;;;23.65;12.10;;;;;;;-1.81;78.92;95843.59;5012230;28;20121;-80
2022/01/27 07:56:17;;;;;;;20.80;11.43;;;;;;;-1.63;78.84;95875.25;5012610;28;20041;-81
2022/01/27 07:58:43;;;;;;;26.02;12.57;;;;;;;-0.90;78.68;95999.25;5012478;28;20038;-81
2022/01/27 08:01:09;;;;;;;18.45;11.82;;;;;;;-1.07;78.63;95968.41;5012648;28;20038;-80
2022/01/27 08:03:36;;;;;;;22.65;11.90;;;;;;;-1.40;79.15;95911.53;5010795;28;20045;-80
2022/01/27 08:06:05;;;;;;;19.88;11.68;;;;;;;-0.90;79.68;95994.03;5011692;28;20053;-80
2022/01/27 08:08:31;;;;;;;27.63;13.98;;;;;;;-1.34;79.51;95929.03;5027419;28;20378;-80
2022/01/27 08:10:57;;;;;;;24.33;13.57;;;;;;;-1.52;79.46;95886.97;5012232;28;20034;-80
2022/01/27 08:13:22;;;;;;;21.50;11.48;;;;;;;-1.12;79.09;95953.31;5010828;28;20034;-81
2022/01/27 08:15:48;;;;;;;26.10;14.70;;;;;;;-0.99;79.81;95973.50;5012092;28;20053;-80
2022/01/27 08:18:13;;;;;;;25.88;14.20;;;;;;;-0.97;79.66;95967.13;5013675;28;20041;-80
2022/01/27 08:20:40;;;;;;;29.75;15.80;;;;;;;-1.27;79.31;95903.09;5012936;28;20416;-80
2022/01/27 08:23:06;;;;;;;25.45;13.70;;;;;;;-0.91;78.52;95955.97;5012803;28;20052;-80
2022/01/27 08:25:33;;;;;;;33.35;17.95;;;;;;;-0.53;78.67;95994.84;5011462;28;20128;-80
2022/01/27 08:28:02;;;;;;;29.63;16.02;;;;;;;-0.81;79.26;95969.50;5012948;28;20487;-80
2022/01/27 08:30:34;;;;;;;28.48;15.15;;;;;;;-1.50;78.12;95865.97;5011508;28;20034;-81
2022/01/27 08:33:15;;;;;;;27.80;14.85;;;;;;;-0.98;78.61;95951.66;5015648;28;20099;-81
2022/01/27 08:35:40;;;;;;;29.92;15.48;;;;;;;-1.13;78.83;95925.66;5017104;28;20049;-80
2022/01/27 08:38:06;;;;;;;35.22;17.48;;;;;;;-1.07;78.84;95913.75;5016422;28;20041;-80
2022/01/27 08:40:32;;;;;;;36.95;17.00;;;;;;;-1.11;78.14;95918.50;5013839;28;20065;-80
2022/01/27 08:42:58;;;;;;;32.83;17.60;;;;;;;-0.91;78.89;95942.13;5015914;28;20096;-80
2022/01/27 08:45:25;;;;;;;35.08;17.33;;;;;;;-0.63;78.42;95994.34;5014729;28;20432;-81
2022/01/27 08:47:52;;;;;;;38.90;17.70;;;;;;;-0.62;78.66;96004.59;5016682;28;20041;-80
2022/01/27 08:50:20;;;;;;;36.60;17.08;;;;;;;-0.94;78.49;95937.31;5014411;28;20045;-80
2022/01/27 08:52:45;;;;;;;39.20;18.10;;;;;;;-1.09;78.56;95913.91;5014079;28;20054;-81
2022/01/27 08:55:11;;;;;;;33.08;17.90;;;;;;;-0.51;78.39;96009.31;5015332;28;20030;-80
2022/01/27 08:57:37;;;;;;;27.35;14.50;;;;;;;-0.54;78.12;96021.91;5015990;28;20033;-79
2022/01/27 09:00:11;;;;;;;32.13;14.80;;;;;;;-0.82;78.44;95993.94;5014315;28;20503;-80
2022/01/27 09:02:37;;;;;;;28.10;15.18;;;;;;;-2.60;78.03;95706.63;5030746;28;20025;-80
2022/01/27 09:05:03;;;;;;;34.35;17.70;;;;;;;-1.44;78.37;95863.44;5013580;28;20046;-82
2022/01/27 09:07:29;;;;;;;27.88;15.40;;;;;;;-1.01;78.43;95963.28;5016318;28;20108;-81
2022/01/27 09:09:55;;;;;;;29.40;15.50;;;;;;;-2.20;78.31;95767.69;5014823;28;20576;-81
2022/01/27 09:12:20;;;;;;;34.58;17.60;;;;;;;-1.86;78.26;95825.13;5014686;28;20038;-81
2022/01/27 09:14:46;;;;;;;37.38;17.42;;;;;;;-2.56;78.15;95685.31;5030645;28;20485;-82
2022/01/27 09:17:13;;;;;;;24.88;14.05;;;;;;;-0.99;77.52;95926.66;5016253;28;20810;-81
2022/01/27 09:19:41;;;;;;;32.72;17.10;;;;;;;-0.42;77.65;96018.63;5016484;28;20121;-82
2022/01/27 09:22:13;;;;;;;33.80;17.77;;;;;;;-0.86;77.91;95947.63;5015988;28;20476;-81
2022/01/27 09:27:19;;;;;;;26.50;15.25;;;;;;;-0.76;77.27;95955.94;5016007;28;20065;-81
2022/01/27 09:29:47;;;;;;;31.40;17.20;;;;;;;-0.32;77.97;96014.94;5014001;28;20507;-81
2022/01/27 09:32:13;;;;;;;27.60;15.05;;;;;;;-0.51;76.66;95975.44;4997780;28;20045;-81
2022/01/27 09:34:39;;;;;;;33.33;15.98;;;;;;;-0.64;77.11;95977.91;5031205;28;20037;-82
2022/01/27 09:37:04;;;;;;;29.38;16.42;;;;;;;-1.06;77.47;95889.28;5015036;28;20042;-81
2022/01/27 09:39:32;;;;;;;26.92;15.48;;;;;;;-0.51;76.99;95974.63;5013648;28;20101;-81
2022/01/27 09:41:59;;;;;;;32.80;16.13;;;;;;;-0.86;76.73;95911.16;5014033;28;20459;-81
2022/01/27 09:44:31;;;;;;;29.45;14.73;;;;;;;-1.11;76.17;95881.25;5013477;28;20038;-81
2022/01/27 09:47:01;;;;;;;30.65;16.35;;;;;;;-0.63;75.93;95939.66;5012810;28;20041;-82
2022/01/27 09:49:33;;;;;;;31.55;16.67;;;;;;;-0.46;76.14;95959.25;5013293;28;20041;-81
2022/01/27 09:52:00;;;;;;;35.03;17.73;;;;;;;-0.49;76.70;95908.31;5012644;28;20492;-81
2022/01/27 09:54:26;;;;;;;33.35;17.52;;;;;;;-0.24;76.04;95953.06;5013233;28;20041;-81
2022/01/27 09:56:53;;;;;;;28.85;16.20;;;;;;;0.07;75.29;95985.81;5013049;28;20029;-81
2022/01/27 09:59:21;;;;;;;35.75;18.33;;;;;;;-0.60;75.65;95880.16;5013903;28;20034;-81
2022/01/27 10:01:57;;;;;;;29.23;16.25;;;;;;;-0.05;74.82;95941.16;5014328;28;20046;-81
2022/01/27 10:04:26;;;;;;;33.83;17.90;;;;;;;0.04;74.13;95957.47;5012551;28;20095;-82
2022/01/27 10:06:58;;;;;;;35.80;17.77;;;;;;;-0.20;74.20;95920.38;5013004;28;20184;-81
2022/01/27 10:09:27;;;;;;;28.25;15.23;;;;;;;-0.41;74.21;95933.44;5013227;28;20136;-82
2022/01/27 10:11:53;;;;;;;37.17;19.23;;;;;;;-0.41;75.08;95930.84;5012427;28;20042;-81
2022/01/27 10:14:35;;;;;;;36.83;18.13;;;;;;;-0.07;75.16;95975.25;5013447;28;20048;-81
2022/01/27 10:17:02;;;;;;;32.28;16.65;;;;;;;-0.09;74.96;95986.88;5013825;28;20034;-81
2022/01/27 10:19:28;;;;;;;29.92;15.23;;;;;;;-0.95;73.87;95854.97;5013934;28;20062;-81
2022/01/27 10:22:01;;;;;;;30.65;15.75;;;;;;;-0.69;73.82;95940.38;5012555;28;20041;-82
2022/01/27 10:24:29;;;;;;;27.88;14.82;;;;;;;-0.62;73.81;95952.50;5012766;28;20034;-81
2022/01/27 10:27:29;;;;;;;32.40;15.27;;;;;;;-0.15;73.19;95980.59;5012685;28;20034;-82
2022/01/27 10:32:40;;;;;;;24.58;13.57;;;;;;;-0.09;71.44;95976.44;5013674;28;20484;-82
2022/01/27 10:35:10;;;;;;;29.63;15.90;;;;;;;-0.13;72.54;95931.66;5011808;28;20049;-82
2022/01/27 10:37:54;;;;;;;28.20;14.55;;;;;;;0.39;71.10;95970.38;5031286;28;20029;-81
2022/01/27 10:40:29;;;;;;;28.02;15.23;;;;;;;0.76;70.88;95965.78;5016988;28;20040;-82
2022/01/27 10:43:03;;;;;;;25.63;13.95;;;;;;;0.79;69.67;95970.63;5014949;28;20037;-82
2022/01/27 10:45:29;;;;;;;28.10;13.55;;;;;;;0.87;69.17;95930.47;5013875;28;20045;-82
2022/01/27 10:48:18;;;;;;;34.88;16.23;;;;;;;0.30;68.95;95816.81;5012654;28;20038;-82
2022/01/27 10:51:03;;;;;;;30.85;14.07;;;;;;;0.80;68.47;95896.50;5012923;28;20108;-83
2022/01/27 10:54:00;;;;;;;32.67;14.80;;;;;;;0.45;68.24;95796.59;5012874;28;20082;-82
2022/01/27 10:56:37;;;;;;;24.70;13.70;;;;;;;1.25;68.01;95955.13;5029244;28;20038;-82
2022/01/27 10:59:09;;;;;;;25.58;14.82;;;;;;;0.91;66.85;95929.09;5015170;28;20481;-82
2022/01/27 11:01:44;;;;;;;20.63;11.25;;;;;;;1.01;67.01;95947.81;5015343;28;20032;-82
2022/01/27 11:04:12;;;;;;;27.73;12.80;;;;;;;1.09;67.36;95943.22;5013970;28;20033;-82
2022/01/27 11:06:54;;;;;;;27.40;13.27;;;;;;;0.49;68.27;95836.94;5017679;28;20038;-82
2022/01/27 11:09:23;;;;;;;23.55;12.85;;;;;;;0.57;66.47;95851.63;5029877;28;20042;-83
2022/01/27 11:11:50;;;;;;;26.08;12.68;;;;;;;0.36;67.69;95776.88;5017375;28;20048;-82
2022/01/27 11:14:16;;;;;;;23.00;12.60;;;;;;;1.78;64.83;95937.75;5013629;28;20505;-80
2022/01/27 11:16:44;;;;;;;32.88;11.15;;;;;;;1.37;64.67;95830.75;5018548;28;20053;-80
2022/01/27 11:22:01;;;;;;;23.27;12.68;;;;;;;2.00;64.75;95861.69;5018093;28;20038;-81
2022/01/27 11:24:54;;;;;;;23.98;10.57;;;;;;;2.37;62.58;95923.81;5013358;28;20040;-81
2022/01/27 11:27:22;;;;;;;18.40;9.02;;;;;;;2.09;63.00;95944.19;5012811;28;20119;-82
2022/01/27 11:29:56;;;;;;;16.92;9.50;;;;;;;1.88;63.46;95926.91;5012613;28;20049;-82
2022/01/27 11:32:34;;;;;;;23.67;9.45;;;;;;;1.85;63.16;95915.00;5014627;28;20049;-82
2022/01/27 11:35:00;;;;;;;23.23;8.88;;;;;;;1.88;62.59;95929.50;5013323;28;20524;-82
2022/01/27 11:37:34;;;;;;;21.73;9.25;;;;;;;0.77;62.74;95761.91;5011383;28;20038;-82
2022/01/27 11:40:06;;;;;;;23.92;9.20;;;;;;;0.18;62.84;95669.66;5010631;28;20101;-82
2022/01/27 11:42:34;;;;;;;13.10;8.15;;;;;;;1.60;62.64;95914.00;5013990;28;20030;-83
2022/01/27 11:45:28;;;;;;;20.88;8.77;;;;;;;1.42;63.58;95906.72;5016019;28;20476;-82
2022/01/27 11:48:11;;;;;;;25.70;10.15;;;;;;;1.48;63.50;95903.31;5012828;28;20049;-83
2022/01/27 11:50:49;;;;;;;17.52;8.38;;;;;;;0.99;62.70;95842.75;5012617;28;20418;-83
2022/01/27 11:53:36;;;;;;;25.83;8.93;;;;;;;1.43;63.59;95908.34;5012727;28;20136;-82
2022/01/27 11:56:30;;;;;;;16.27;7.78;;;;;;;1.12;63.58;95843.56;5011024;28;20048;-82
2022/01/27 11:59:08;;;;;;;18.50;8.00;;;;;;;1.54;62.86;95902.50;5010021;28;20148;-82
2022/01/27 12:01:37;;;;;;;19.08;9.90;;;;;;;0.53;63.71;95743.41;5013702;28;20049;-82
2022/01/27 12:04:04;;;;;;;16.60;8.77;;;;;;;1.70;63.38;95903.13;5011578;28;20045;-82
2022/01/27 12:06:51;;;;;;;15.30;7.53;;;;;;;1.62;63.22;95911.16;5010375;28;20038;-82
2022/01/27 12:09:19;;;;;;;40.08;10.32;;;;;;;1.51;63.64;95913.38;4997924;28;20049;-82
2022/01/27 12:11:50;;;;;;;14.57;8.60;;;;;;;1.50;62.73;95910.97;5010847;28;20099;-82
2022/01/27 12:14:23;;;;;;;17.02;9.48;;;;;;;0.72;63.95;95782.59;5012263;28;20046;-81
2022/01/27 12:17:07;;;;;;;22.52;10.73;;;;;;;1.69;63.93;95891.06;5011905;28;20064;-81
2022/01/27 12:19:53;;;;;;;26.98;9.68;;;;;;;2.14;62.13;95890.25;5011581;28;20056;-82
2022/01/27 12:22:25;;;;;;;24.25;9.85;;;;;;;2.12;60.52;95892.28;5014059;28;20033;-81
2022/01/27 12:24:52;;;;;;;27.70;8.75;;;;;;;2.27;60.00;95885.00;5012296;28;20523;-81
2022/01/27 12:27:19;;;;;;;21.88;7.70;;;;;;;1.16;59.14;95742.88;5012358;28;20034;-82
2022/01/27 12:29:53;;;;;;;15.43;7.53;;;;;;;1.91;61.81;95889.84;5010669;28;20034;-83